Time;durP1;ratioP1;P1;durP2;ratioP2;P2;SDS_P1;SDS_P2;PMS_P1;PMS_P2;Temp;Humidity;BMP_temperature;BMP_pressure;BME280_temperature;BME280_humidity;BME280_pressure;Samples;Min_cycle;Max_cycle;Signal;HPM_P1;HPM_P2
2022/11/26 00:00:20;;;;;;;34.13;18.50;;;;;;;6.79;71.39;101929.56;681447;29;1097;-81
2022/11/26 00:00:40;;;;;;;32.75;18.60;;;;;;;6.79;71.08;101933.06;680538;29;804;-82
2022/11/26 00:01:01;;;;;;;34.13;18.67;;;;;;;6.76;71.09;101926.78;685174;28;1083;-82
2022/11/26 00:01:22;;;;;;;34.70;18.67;;;;;;;6.80;70.79;101934.84;685707;28;1233;-82
2022/11/26 00:01:42;;;;;;;34.28;18.25;;;;;;;6.79;70.98;101933.06;678012;28;1391;-82
2022/11/26 00:02:24;;;;;;;35.50;18.20;;;;;;;6.88;71.19;101947.41;680243;29;1172;-82
2022/11/26 00:02:45;;;;;;;33.58;18.73;;;;;;;6.80;71.02;101934.84;683070;29;1339;-82
2022/11/26 00:03:08;;;;;;;30.15;17.80;;;;;;;6.82;70.98;101943.63;682909;29;1128;-82
2022/11/26 00:03:29;;;;;;;31.27;17.98;;;;;;;6.77;71.16;101936.34;688448;28;1455;-82
2022/11/26 00:03:52;;;;;;;32.55;17.50;;;;;;;6.82;70.85;101951.41;680368;29;1157;-82
2022/11/26 00:04:12;;;;;;;32.42;17.85;;;;;;;6.75;70.58;101937.97;677700;29;1117;-82
2022/11/26 00:04:33;;;;;;;32.27;16.83;;;;;;;6.74;70.79;101934.47;677947;29;722;-82
2022/11/26 00:04:55;;;;;;;30.95;16.67;;;;;;;6.72;71.17;101936.06;683011;29;1276;-82
2022/11/26 00:05:16;;;;;;;29.52;17.25;;;;;;;6.77;71.03;101939.84;680193;28;1294;-82
2022/11/26 00:05:37;;;;;;;33.30;19.02;;;;;;;6.77;70.92;101945.03;680402;29;1237;-82
2022/11/26 00:05:59;;;;;;;39.13;20.55;;;;;;;6.80;71.20;101950.41;677692;29;1536;-82
2022/11/26 00:06:48;;;;;;;43.70;21.40;;;;;;;6.79;71.18;101950.31;677817;29;1089;-82
2022/11/26 00:07:11;;;;;;;37.65;20.50;;;;;;;6.72;70.95;101936.06;674628;29;1585;-81
2022/11/26 00:07:32;;;;;;;38.15;19.05;;;;;;;6.75;71.37;101937.97;680510;29;1329;-82
2022/11/26 00:07:55;;;;;;;39.25;19.60;;;;;;;6.79;71.01;101943.44;675923;29;833;-82
2022/11/26 00:08:29;;;;;;;46.63;21.88;;;;;;;6.82;71.70;101941.03;673204;29;1256;-82
2022/11/26 00:08:50;;;;;;;54.72;25.52;;;;;;;6.82;71.24;101943.63;678632;29;1480;-82
2022/11/26 00:09:14;;;;;;;57.08;25.42;;;;;;;6.82;71.45;101938.41;680982;29;1338;-81
2022/11/26 00:09:35;;;;;;;55.38;25.27;;;;;;;6.81;71.21;101941.81;681125;29;1211;-82
2022/11/26 00:09:57;;;;;;;54.20;25.00;;;;;;;6.89;71.67;101951.78;678282;29;1274;-82
2022/11/26 00:10:22;;;;;;;48.47;23.90;;;;;;;6.82;71.46;101946.22;680357;29;1142;-81
2022/11/26 00:10:43;;;;;;;44.92;23.20;;;;;;;6.81;71.81;101939.22;680427;29;1170;-82
2022/11/26 00:11:06;;;;;;;45.50;22.70;;;;;;;6.88;71.45;101948.28;680366;29;1064;-81
2022/11/26 00:11:27;;;;;;;49.08;23.02;;;;;;;6.85;71.38;101941.22;680534;29;1216;-82
2022/11/26 00:11:48;;;;;;;46.35;22.00;;;;;;;6.84;71.36;101941.13;680308;29;1254;-82
2022/11/26 00:12:17;;;;;;;41.43;21.43;;;;;;;6.88;71.29;101956.06;685015;28;1322;-82
2022/11/26 00:12:37;;;;;;;33.78;20.00;;;;;;;6.79;71.55;101938.25;683092;29;776;-81
2022/11/26 00:12:58;;;;;;;34.25;19.70;;;;;;;6.80;71.13;101945.22;675076;29;1158;-81
2022/11/26 00:13:24;;;;;;;33.22;18.98;;;;;;;6.84;71.56;101952.41;677515;29;1139;-82
2022/11/26 00:13:45;;;;;;;33.47;18.77;;;;;;;6.81;71.25;101949.59;677280;29;1336;-82
2022/11/26 00:14:23;;;;;;;33.20;18.88;;;;;;;6.77;71.12;101950.22;682958;29;1298;-82
2022/11/26 00:14:44;;;;;;;31.60;17.88;;;;;;;6.81;71.36;101951.31;685810;28;858;-81
2022/11/26 00:15:20;;;;;;;34.15;18.27;;;;;;;6.77;71.20;101944.13;682933;29;1037;-82
2022/11/26 00:15:41;;;;;;;33.63;18.88;;;;;;;6.83;71.35;101960.97;680375;29;1103;-82
2022/11/26 00:16:02;;;;;;;32.50;17.60;;;;;;;6.73;71.31;101943.03;682925;29;1110;-82
2022/11/26 00:16:22;;;;;;;35.00;17.43;;;;;;;6.73;71.45;101947.34;683109;29;752;-81
2022/11/26 00:16:43;;;;;;;36.47;17.42;;;;;;;6.77;71.78;101951.91;680296;29;1223;-82
2022/11/26 00:17:04;;;;;;;35.85;18.30;;;;;;;6.70;71.14;101938.53;677477;29;1161;-82
2022/11/26 00:17:24;;;;;;;35.37;18.10;;;;;;;6.69;71.46;101947.09;677580;29;1164;-82
2022/11/26 00:17:45;;;;;;;35.30;18.10;;;;;;;6.67;71.75;101938.34;677742;29;1287;-82
2022/11/26 00:18:06;;;;;;;36.67;18.40;;;;;;;6.76;70.93;101961.38;682761;29;1208;-82
2022/11/26 00:18:27;;;;;;;36.67;18.70;;;;;;;6.70;71.31;101954.09;680386;29;1186;-82
2022/11/26 00:18:47;;;;;;;37.20;18.80;;;;;;;6.74;71.17;101962.13;680356;29;851;-82
2022/11/26 00:19:08;;;;;;;38.35;18.70;;;;;;;6.68;71.24;101954.78;674610;29;1487;-82
2022/11/26 00:19:29;;;;;;;37.10;17.90;;;;;;;6.67;71.39;101953.00;672345;29;1920;-82
2022/11/26 00:19:49;;;;;;;40.77;17.53;;;;;;;6.70;71.28;101963.59;677599;29;1175;-82
2022/11/26 00:20:11;;;;;;;38.03;17.38;;;;;;;6.73;71.39;101963.81;682666;29;1243;-82
2022/11/26 00:20:31;;;;;;;38.58;18.17;;;;;;;6.67;71.56;101953.00;685808;28;823;-82
2022/11/26 00:20:55;;;;;;;36.05;18.50;;;;;;;6.69;71.61;101954.88;677668;29;1125;-81
2022/11/26 00:21:25;;;;;;;38.30;19.15;;;;;;;6.74;71.38;101968.19;680132;29;1145;-81
2022/11/26 00:21:46;;;;;;;36.33;19.08;;;;;;;6.75;71.30;101972.56;680309;29;906;-82
2022/11/26 00:22:20;;;;;;;36.90;19.38;;;;;;;6.70;71.09;101958.41;682739;29;1270;-82
2022/11/26 00:22:53;;;;;;;34.67;18.85;;;;;;;6.74;71.58;101960.41;682695;28;1191;-82
2022/11/26 00:23:23;;;;;;;37.28;19.60;;;;;;;6.70;71.52;101950.63;680545;29;1447;-81
2022/11/26 00:23:44;;;;;;;40.03;20.45;;;;;;;6.76;71.98;101958.78;683067;29;811;-82
2022/11/26 00:24:21;;;;;;;37.80;20.08;;;;;;;6.81;71.68;101956.50;685304;28;1161;-82
2022/11/26 00:24:42;;;;;;;39.10;19.50;;;;;;;6.83;71.68;101968.75;685666;28;839;-81
2022/11/26 00:25:02;;;;;;;40.70;19.53;;;;;;;6.85;71.86;101964.59;685536;28;1151;-81
2022/11/26 00:25:26;;;;;;;37.53;19.20;;;;;;;6.89;71.49;101962.16;685837;28;861;-82
2022/11/26 00:25:58;;;;;;;39.42;19.60;;;;;;;6.85;71.62;101964.59;685692;28;1226;-82
2022/11/26 00:26:21;;;;;;;38.10;19.40;;;;;;;6.89;71.57;101969.94;680201;29;1209;-82
2022/11/26 00:26:42;;;;;;;39.40;19.90;;;;;;;6.85;72.02;101964.59;675128;29;829;-82
2022/11/26 00:27:03;;;;;;;38.30;19.80;;;;;;;6.81;71.74;101952.19;680244;29;1193;-81
2022/11/26 00:27:26;;;;;;;39.80;19.65;;;;;;;6.93;71.83;101977.16;677779;29;921;-81
2022/11/26 00:27:48;;;;;;;42.72;19.85;;;;;;;6.83;71.47;101960.97;680461;29;1157;-82
2022/11/26 00:28:32;;;;;;;44.78;20.27;;;;;;;6.94;71.94;101969.44;680010;29;1069;-81
2022/11/26 00:29:00;;;;;;;43.67;20.42;;;;;;;6.85;71.50;101959.41;677844;29;1144;-81
2022/11/26 00:29:21;;;;;;;36.80;19.10;;;;;;;6.94;71.66;101976.34;677817;29;1017;-82
2022/11/26 00:29:42;;;;;;;36.65;19.50;;;;;;;6.91;71.94;101963.16;680194;29;1185;-82
2022/11/26 00:30:21;;;;;;;35.55;19.80;;;;;;;6.94;71.52;101964.25;680049;29;1352;-81
2022/11/26 00:30:42;;;;;;;39.78;19.20;;;;;;;6.98;71.39;101974.03;677932;29;851;-82
2022/11/26 00:31:06;;;;;;;41.75;19.10;;;;;;;7.00;72.00;101971.50;677710;29;1118;-82
2022/11/26 00:31:27;;;;;;;42.20;19.38;;;;;;;7.01;71.62;101970.72;672662;29;1155;-81
2022/11/26 00:31:48;;;;;;;41.63;19.80;;;;;;;6.99;72.06;101970.63;677838;29;1281;-81
2022/11/26 00:32:25;;;;;;;38.90;19.57;;;;;;;7.05;71.85;101975.28;677633;29;1116;-81
2022/11/26 00:32:46;;;;;;;36.67;20.27;;;;;;;6.97;71.81;101963.53;680415;29;1265;-82
2022/11/26 00:33:07;;;;;;;37.45;20.77;;;;;;;7.04;72.36;101980.38;677511;29;1325;-82
2022/11/26 00:33:29;;;;;;;38.38;20.30;;;;;;;7.00;71.87;101979.28;680462;28;1301;-83
2022/11/26 00:33:50;;;;;;;43.15;20.30;;;;;;;6.99;72.07;101980.09;682995;28;1535;-82
2022/11/26 00:34:11;;;;;;;43.45;20.35;;;;;;;7.01;71.85;101978.53;682794;28;1206;-81
2022/11/26 00:34:31;;;;;;;49.90;21.35;;;;;;;6.95;71.84;101967.75;682503;29;764;-82
2022/11/26 00:34:53;;;;;;;46.50;21.30;;;;;;;6.97;72.20;101973.94;677437;29;1205;-82
2022/11/26 00:35:14;;;;;;;45.92;21.25;;;;;;;6.97;72.17;101969.66;680306;29;1006;-82
2022/11/26 00:35:35;;;;;;;40.55;21.38;;;;;;;6.99;72.15;101972.31;680422;29;1095;-82
2022/11/26 00:36:16;;;;;;;43.72;21.45;;;;;;;7.00;72.64;101966.31;674905;29;1295;-82
2022/11/26 00:36:37;;;;;;;42.90;21.92;;;;;;;7.05;72.16;101977.00;680498;29;1221;-81
2022/11/26 00:36:57;;;;;;;39.75;22.25;;;;;;;7.02;72.55;101971.59;677861;29;1158;-81
2022/11/26 00:37:32;;;;;;;42.45;22.65;;;;;;;7.07;72.18;101975.41;682890;29;1141;-81
2022/11/26 00:37:55;;;;;;;46.88;22.63;;;;;;;7.16;72.66;101982.84;683139;29;799;-82
2022/11/26 00:38:18;;;;;;;48.70;23.13;;;;;;;7.19;72.26;101990.84;680142;29;1219;-81
2022/11/26 00:38:39;;;;;;;51.63;23.73;;;;;;;7.17;72.14;101971.69;672758;29;1277;-81
2022/11/26 00:39:05;;;;;;;49.45;23.20;;;;;;;7.25;72.16;101986.91;677678;29;1435;-82
2022/11/26 00:39:26;;;;;;;45.75;23.20;;;;;;;7.19;72.68;101975.25;677967;29;1109;-82
2022/11/26 00:39:47;;;;;;;45.17;23.60;;;;;;;7.18;72.49;101971.75;675176;29;1899;-82
2022/11/26 00:40:34;;;;;;;44.10;23.73;;;;;;;7.34;72.21;101991.78;672387;29;1278;-82
2022/11/26 00:40:54;;;;;;;44.30;23.10;;;;;;;7.27;72.64;101980.09;672522;29;1330;-81
2022/11/26 00:41:22;;;;;;;47.42;23.20;;;;;;;7.29;72.73;101981.91;680200;29;1252;-82
2022/11/26 00:41:47;;;;;;;48.25;23.38;;;;;;;7.40;72.08;101991.25;685873;28;2201;-81
2022/11/26 00:42:09;;;;;;;45.67;23.15;;;;;;;7.42;72.35;101993.94;680325;29;1102;-82
2022/11/26 00:42:29;;;;;;;47.08;23.73;;;;;;;7.36;72.14;101981.47;683157;29;1111;-82
2022/11/26 00:42:51;;;;;;;44.20;23.77;;;;;;;7.35;72.32;101980.56;683338;29;804;-81
2022/11/26 00:43:13;;;;;;;46.83;23.35;;;;;;;7.34;72.36;101976.19;682986;29;989;-82
2022/11/26 00:43:33;;;;;;;47.17;22.80;;;;;;;7.36;72.65;101978.88;680382;29;1438;-81
2022/11/26 00:43:54;;;;;;;47.50;22.70;;;;;;;7.40;72.19;101980.84;677888;29;1056;-81
2022/11/26 00:44:17;;;;;;;45.03;23.02;;;;;;;7.39;72.02;101984.25;680398;29;1097;-81
2022/11/26 00:44:38;;;;;;;44.65;22.90;;;;;;;7.40;72.09;101992.16;685696;28;1098;-81
2022/11/26 00:44:59;;;;;;;46.22;23.20;;;;;;;7.42;71.95;101988.75;680500;29;1302;-81
2022/11/26 00:45:24;;;;;;;45.22;22.25;;;;;;;7.45;72.10;101994.13;677697;29;1183;-81
2022/11/26 00:45:46;;;;;;;45.42;21.92;;;;;;;7.33;72.46;101974.41;680488;29;1318;-81
2022/11/26 00:46:11;;;;;;;43.58;21.23;;;;;;;7.40;72.16;101981.78;682793;29;1103;-81
2022/11/26 00:46:32;;;;;;;43.97;22.00;;;;;;;7.39;72.38;101979.94;683153;29;1125;-81
2022/11/26 00:46:53;;;;;;;40.15;20.98;;;;;;;7.45;72.23;101995.03;683078;29;1051;-81
2022/11/26 00:47:13;;;;;;;41.23;21.20;;;;;;;7.45;72.19;101989.84;682818;29;1074;-81
2022/11/26 00:47:34;;;;;;;40.92;20.83;;;;;;;7.38;71.99;101983.34;683073;29;1253;-81
2022/11/26 00:48:00;;;;;;;40.17;21.33;;;;;;;7.44;72.30;101992.34;680496;29;1375;-82
2022/11/26 00:48:21;;;;;;;41.97;22.10;;;;;;;7.47;72.03;101992.50;675285;29;1055;-81
2022/11/26 00:48:41;;;;;;;43.25;22.15;;;;;;;7.45;72.30;101988.94;680458;29;1397;-81
2022/11/26 00:49:02;;;;;;;53.20;23.50;;;;;;;7.48;72.43;101992.59;680261;29;1145;-81
2022/11/26 00:49:23;;;;;;;51.97;23.48;;;;;;;7.49;72.46;101988.31;680462;29;1088;-82
2022/11/26 00:49:43;;;;;;;50.92;23.48;;;;;;;7.54;72.24;101989.47;674974;29;1159;-81
2022/11/26 00:50:05;;;;;;;45.73;23.60;;;;;;;7.58;72.33;101996.66;680115;29;1086;-81
2022/11/26 00:50:27;;;;;;;44.92;23.95;;;;;;;7.55;72.12;101986.06;685762;28;879;-81
2022/11/26 00:50:50;;;;;;;45.08;24.17;;;;;;;7.57;71.89;101984.47;680555;29;1508;-81
2022/11/26 00:51:15;;;;;;;46.17;23.65;;;;;;;7.60;72.46;101994.13;680191;29;1028;-81
2022/11/26 00:51:36;;;;;;;47.95;23.70;;;;;;;7.61;71.90;101990.75;680416;29;1273;-81
2022/11/26 00:51:57;;;;;;;48.83;23.77;;;;;;;7.61;72.14;101991.63;680415;29;1048;-81
2022/11/26 00:52:33;;;;;;;48.20;24.07;;;;;;;7.64;72.13;101997.03;680245;29;1226;-81
2022/11/26 00:52:55;;;;;;;49.00;22.83;;;;;;;7.56;72.05;101984.38;680307;29;1383;-81
2022/11/26 00:53:19;;;;;;;47.03;22.50;;;;;;;7.61;72.33;101996.84;682924;29;1077;-81
2022/11/26 00:53:42;;;;;;;45.67;22.25;;;;;;;7.60;72.03;101995.03;675064;29;1327;-81
2022/11/26 00:54:04;;;;;;;44.22;22.27;;;;;;;7.56;72.23;101987.88;677613;29;1285;-81
2022/11/26 00:54:25;;;;;;;46.28;21.98;;;;;;;7.55;71.93;101983.47;677792;29;1128;-81
2022/11/26 00:54:46;;;;;;;41.30;21.25;;;;;;;7.58;71.98;101991.47;683019;29;1261;-82
2022/11/26 00:55:16;;;;;;;42.80;21.40;;;;;;;7.49;72.12;101983.13;680059;29;1133;-81
2022/11/26 00:55:40;;;;;;;51.35;22.92;;;;;;;7.59;71.63;102003.66;680383;29;847;-81
2022/11/26 00:56:00;;;;;;;54.85;23.10;;;;;;;7.57;71.86;102000.06;680258;29;1229;-81
2022/11/26 00:56:22;;;;;;;54.65;22.30;;;;;;;7.49;71.56;101985.72;680193;29;1285;-82
2022/11/26 00:56:43;;;;;;;48.70;21.55;;;;;;;7.57;71.84;102000.06;677751;29;1495;-82
2022/11/26 00:57:04;;;;;;;43.10;21.45;;;;;;;7.48;72.19;101987.41;680172;29;1193;-81
2022/11/26 00:57:25;;;;;;;39.87;21.40;;;;;;;7.47;71.69;101982.13;685631;28;1213;-81
2022/11/26 00:57:46;;;;;;;39.47;21.00;;;;;;;7.48;71.83;101992.59;683068;29;1137;-81
2022/11/26 00:58:29;;;;;;;41.03;20.48;;;;;;;7.48;71.67;101995.19;682923;29;1190;-82
2022/11/26 00:58:50;;;;;;;42.28;20.73;;;;;;;7.45;71.63;101991.53;682802;29;1013;-81
2022/11/26 00:59:16;;;;;;;39.10;21.48;;;;;;;7.46;71.53;101995.91;682857;29;1089;-81
2022/11/26 00:59:37;;;;;;;38.45;21.17;;;;;;;7.46;71.58;101998.50;677604;28;1970;-81
2022/11/26 00:59:58;;;;;;;38.08;20.67;;;;;;;7.43;72.07;102000.94;680254;28;1357;-82
2022/11/26 01:00:27;;;;;;;39.30;20.47;;;;;;;7.42;71.69;101997.41;674973;29;1276;-82
2022/11/26 01:00:48;;;;;;;42.00;20.45;;;;;;;7.42;72.25;101999.13;680258;28;1228;-82
2022/11/26 01:01:12;;;;;;;43.22;20.38;;;;;;;7.44;72.15;102003.63;674867;29;1311;-81
2022/11/26 01:01:33;;;;;;;42.60;21.02;;;;;;;7.45;72.00;102005.41;680312;29;773;-81
2022/11/26 01:01:53;;;;;;;43.70;21.10;;;;;;;7.36;71.83;101995.34;682795;28;1033;-81
2022/11/26 01:02:14;;;;;;;40.50;20.47;;;;;;;7.40;72.19;102004.22;680243;29;1201;-82
2022/11/26 01:02:34;;;;;;;39.80;19.55;;;;;;;7.37;72.04;101997.16;680413;29;1174;-81
2022/11/26 01:02:56;;;;;;;38.30;18.70;;;;;;;7.41;71.98;101998.22;677803;29;1198;-81
2022/11/26 01:03:17;;;;;;;44.38;19.15;;;;;;;7.42;72.33;102005.22;674847;29;1334;-81
2022/11/26 01:03:41;;;;;;;48.03;20.00;;;;;;;7.37;71.82;101989.34;677743;29;1242;-82
2022/11/26 01:04:02;;;;;;;50.22;20.98;;;;;;;7.40;72.04;101997.34;678600;29;1093;-82
2022/11/26 01:04:23;;;;;;;45.97;21.70;;;;;;;7.39;71.69;102000.72;681433;29;865;-81
2022/11/26 01:04:43;;;;;;;38.80;20.60;;;;;;;7.40;72.15;102005.16;684027;28;899;-82
2022/11/26 01:05:04;;;;;;;38.25;20.38;;;;;;;7.38;72.16;101992.88;682847;28;1336;-81
2022/11/26 01:05:29;;;;;;;37.78;19.38;;;;;;;7.45;71.86;102014.91;677801;29;818;-82
2022/11/26 01:05:53;;;;;;;40.75;19.50;;;;;;;7.48;71.76;102009.88;675166;29;1355;-81
2022/11/26 01:06:21;;;;;;;43.00;18.60;;;;;;;7.45;71.89;102007.09;677387;29;1183;-82
2022/11/26 01:06:43;;;;;;;43.80;20.30;;;;;;;7.43;71.97;102006.13;677690;29;1176;-81
2022/11/26 01:07:04;;;;;;;42.00;20.40;;;;;;;7.36;71.80;102000.56;680180;29;1181;-81
2022/11/26 01:07:24;;;;;;;38.97;20.45;;;;;;;7.36;71.82;102003.16;685636;28;1055;-81
2022/11/26 01:07:46;;;;;;;36.15;19.65;;;;;;;7.38;72.00;102008.44;685790;28;779;-81
2022/11/26 01:08:31;;;;;;;37.55;20.15;;;;;;;7.37;72.22;102011.84;685545;28;1429;-81
2022/11/26 01:08:53;;;;;;;40.30;20.08;;;;;;;7.36;71.88;102008.34;682617;29;1256;-82
2022/11/26 01:09:19;;;;;;;39.83;20.07;;;;;;;7.34;72.04;102012.56;681687;29;1288;-81
2022/11/26 01:09:43;;;;;;;40.28;20.90;;;;;;;7.37;71.95;102020.53;682970;29;855;-82
2022/11/26 01:10:04;;;;;;;39.47;21.25;;;;;;;7.32;72.29;101998.59;682736;29;1147;-82
2022/11/26 01:10:28;;;;;;;41.75;21.10;;;;;;;7.33;71.94;102015.97;680229;29;1107;-81
2022/11/26 01:10:49;;;;;;;45.28;21.10;;;;;;;7.32;72.09;102008.97;677703;29;1026;-81
2022/11/26 01:11:13;;;;;;;42.35;19.90;;;;;;;7.30;71.85;102012.28;682638;29;1114;-81
2022/11/26 01:11:34;;;;;;;35.72;18.60;;;;;;;7.34;71.92;102022.94;680197;28;1215;-81
2022/11/26 01:11:55;;;;;;;36.85;18.58;;;;;;;7.30;72.05;102020.94;677772;29;1517;-81
2022/11/26 01:12:16;;;;;;;39.27;19.53;;;;;;;7.34;71.74;102028.13;677583;29;1249;-82
2022/11/26 01:12:37;;;;;;;43.95;20.63;;;;;;;7.33;71.79;102018.56;680483;29;794;-81
2022/11/26 01:12:57;;;;;;;41.58;20.15;;;;;;;7.31;71.87;102020.13;683108;29;1058;-81
2022/11/26 01:13:18;;;;;;;41.78;19.95;;;;;;;7.29;71.88;102013.97;682736;29;1439;-82
2022/11/26 01:13:41;;;;;;;45.97;19.73;;;;;;;7.40;72.08;102025.00;682881;29;1138;-81
2022/11/26 01:14:01;;;;;;;47.05;19.98;;;;;;;7.38;71.67;102019.72;680308;29;1042;-81
2022/11/26 01:14:22;;;;;;;46.08;20.40;;;;;;;7.39;71.90;102026.69;680348;29;1120;-82
2022/11/26 01:14:43;;;;;;;41.40;20.70;;;;;;;7.39;71.67;102029.28;683081;28;1324;-82
2022/11/26 01:15:04;;;;;;;43.30;21.38;;;;;;;7.37;71.81;102023.13;680183;29;1321;-81
2022/11/26 01:15:27;;;;;;;43.30;21.23;;;;;;;7.42;71.78;102035.50;682936;28;1346;-81
2022/11/26 01:15:47;;;;;;;43.38;20.92;;;;;;;7.33;72.19;102031.53;680362;29;1343;-82
2022/11/26 01:16:18;;;;;;;40.27;20.10;;;;;;;7.38;71.91;102039.59;682785;28;1221;-82
2022/11/26 01:16:41;;;;;;;40.85;20.10;;;;;;;7.26;72.28;102027.66;680296;29;822;-81
2022/11/26 01:17:01;;;;;;;44.20;20.85;;;;;;;7.32;72.00;102032.34;685402;28;1127;-82
2022/11/26 01:17:22;;;;;;;43.30;20.93;;;;;;;7.31;71.64;102038.31;683028;28;787;-81
2022/11/26 01:17:43;;;;;;;43.35;20.58;;;;;;;7.32;72.23;102034.03;680285;29;1176;-81
2022/11/26 01:18:14;;;;;;;40.13;20.23;;;;;;;7.31;72.11;102034.84;680135;29;1327;-82
2022/11/26 01:18:34;;;;;;;38.20;20.05;;;;;;;7.22;71.92;102027.38;680225;29;823;-81
2022/11/26 01:18:57;;;;;;;37.72;19.52;;;;;;;7.26;72.11;102034.56;683133;29;803;-81
2022/11/26 01:19:18;;;;;;;36.95;19.38;;;;;;;7.23;72.29;102024.88;677568;29;1080;-82
2022/11/26 01:19:38;;;;;;;37.83;19.90;;;;;;;7.24;71.93;102026.66;680196;29;1991;-82
2022/11/26 01:19:59;;;;;;;38.43;20.07;;;;;;;7.27;72.17;102042.41;680219;29;1063;-82
2022/11/26 01:20:24;;;;;;;39.25;20.38;;;;;;;7.31;72.19;102046.09;677629;29;1141;-81
2022/11/26 01:20:45;;;;;;;41.88;20.83;;;;;;;7.20;72.11;102022.09;677761;29;851;-81
2022/11/26 01:21:10;;;;;;;41.20;20.15;;;;;;;7.25;72.31;102031.03;674820;29;1283;-82
2022/11/26 01:21:30;;;;;;;39.53;19.85;;;;;;;7.29;72.19;102039.94;677755;29;1242;-82
2022/11/26 01:21:51;;;;;;;40.80;20.00;;;;;;;7.29;72.26;102041.66;677745;29;840;-81
2022/11/26 01:22:22;;;;;;;41.87;21.00;;;;;;;7.24;72.16;102031.84;679963;28;1373;-81
2022/11/26 01:22:42;;;;;;;44.03;21.27;;;;;;;7.23;72.43;102035.25;677662;29;1007;-81
2022/11/26 01:23:03;;;;;;;43.00;20.35;;;;;;;7.24;72.11;102034.44;677496;29;1116;-81
2022/11/26 01:23:23;;;;;;;40.87;20.10;;;;;;;7.25;72.27;102030.16;682962;29;1329;-81
2022/11/26 01:23:45;;;;;;;40.80;19.60;;;;;;;7.31;72.21;102046.09;682968;29;1291;-81
2022/11/26 01:24:06;;;;;;;42.58;19.95;;;;;;;7.31;72.36;102046.09;682797;29;1224;-81
2022/11/26 01:24:27;;;;;;;40.40;20.50;;;;;;;7.21;71.89;102031.69;680426;29;852;-81
2022/11/26 01:24:48;;;;;;;39.33;20.33;;;;;;;7.18;72.12;102022.81;680471;29;643;-81
2022/11/26 01:25:09;;;;;;;35.25;20.30;;;;;;;7.27;71.92;102037.22;672208;29;1235;-81
2022/11/26 01:25:29;;;;;;;35.70;20.05;;;;;;;7.25;72.22;102027.56;675183;29;1127;-82
2022/11/26 01:25:50;;;;;;;36.20;19.80;;;;;;;7.22;72.23;102027.38;677742;29;784;-81
2022/11/26 01:26:15;;;;;;;39.35;19.90;;;;;;;7.22;72.58;102027.38;677491;29;1181;-81
2022/11/26 01:26:41;;;;;;;41.64;20.52;;;;;;;7.22;72.03;102028.28;680348;29;875;-82
2022/11/26 01:27:02;;;;;;;46.78;21.25;;;;;;;7.24;72.34;102030.94;680145;29;1078;-81
2022/11/26 01:27:22;;;;;;;44.53;21.43;;;;;;;7.29;72.01;102039.06;677740;29;1163;-81
2022/11/26 01:27:44;;;;;;;44.10;21.30;;;;;;;7.33;71.96;102043.63;677657;29;1145;-82
2022/11/26 01:28:26;;;;;;;41.40;20.90;;;;;;;7.32;72.14;102041.81;677508;29;1120;-81
2022/11/26 01:28:47;;;;;;;39.42;20.30;;;;;;;7.27;71.87;102025.97;680062;29;1085;-81
2022/11/26 01:29:18;;;;;;;41.63;20.33;;;;;;;7.26;72.02;102029.38;682823;28;1022;-81
2022/11/26 01:29:39;;;;;;;42.50;21.40;;;;;;;7.28;72.05;102038.13;682970;29;1039;-82
2022/11/26 01:30:00;;;;;;;41.92;21.55;;;;;;;7.25;72.20;102032.75;678467;29;1039;-81
2022/11/26 01:30:24;;;;;;;47.38;21.70;;;;;;;7.23;71.93;102032.66;680197;29;1136;-82
2022/11/26 01:30:46;;;;;;;47.05;20.33;;;;;;;7.30;71.95;102046.91;680491;29;748;-81
2022/11/26 01:31:13;;;;;;;46.85;20.52;;;;;;;7.30;72.05;102046.91;680093;29;1194;-81
2022/11/26 01:31:34;;;;;;;45.15;20.70;;;;;;;7.24;72.01;102036.13;677834;29;863;-81
2022/11/26 01:31:54;;;;;;;46.00;21.93;;;;;;;7.25;71.85;102040.56;680282;29;1161;-81
2022/11/26 01:32:15;;;;;;;45.45;22.02;;;;;;;7.23;72.39;102040.44;682788;29;1106;-81
2022/11/26 01:32:36;;;;;;;44.47;21.45;;;;;;;7.26;71.90;102050.13;683136;29;813;-81
2022/11/26 01:32:58;;;;;;;42.20;20.63;;;;;;;7.18;71.77;102031.47;680375;29;1241;-81
2022/11/26 01:33:19;;;;;;;42.58;20.70;;;;;;;7.24;71.97;102046.53;677460;29;1297;-82
2022/11/26 01:33:39;;;;;;;40.42;20.38;;;;;;;7.27;72.21;102055.41;677838;29;1124;-81
2022/11/26 01:34:00;;;;;;;38.23;20.17;;;;;;;7.13;72.05;102028.59;677750;29;1117;-81
2022/11/26 01:34:20;;;;;;;38.42;19.92;;;;;;;7.23;72.18;102052.53;677879;29;1171;-81
2022/11/26 01:34:41;;;;;;;39.85;20.23;;;;;;;7.16;71.61;102035.69;677916;29;1243;-81
2022/11/26 01:35:02;;;;;;;38.90;20.20;;;;;;;7.23;71.84;102049.94;680639;29;1190;-81
2022/11/26 01:35:23;;;;;;;38.78;19.98;;;;;;;7.20;72.36;102049.75;680909;29;1203;-81
2022/11/26 01:35:43;;;;;;;37.33;19.80;;;;;;;7.18;72.12;102043.56;686066;28;1127;-81
2022/11/26 01:36:21;;;;;;;43.30;20.58;;;;;;;7.18;72.13;102035.78;683666;29;1221;-81
2022/11/26 01:36:42;;;;;;;43.60;20.67;;;;;;;7.29;72.42;102060.69;683727;29;1153;-80
2022/11/26 01:37:09;;;;;;;40.40;20.43;;;;;;;7.26;71.99;102050.13;678486;29;1110;-80
2022/11/26 01:37:30;;;;;;;42.40;21.30;;;;;;;7.22;72.40;102048.13;679009;29;831;-80
2022/11/26 01:37:51;;;;;;;41.95;21.40;;;;;;;7.26;72.27;102051.00;681530;29;827;-80
2022/11/26 01:38:14;;;;;;;42.58;21.10;;;;;;;7.20;72.28;102039.34;681418;29;1286;-81
2022/11/26 01:38:35;;;;;;;41.85;21.17;;;;;;;7.24;72.09;102046.53;683596;28;1198;-80
2022/11/26 01:39:03;;;;;;;43.93;21.50;;;;;;;7.19;72.53;102042.75;680728;29;1177;-81
2022/11/26 01:39:23;;;;;;;41.75;22.23;;;;;;;7.22;72.17;102043.84;681018;29;879;-81
2022/11/26 01:39:44;;;;;;;41.28;21.90;;;;;;;7.23;72.63;102044.72;680704;29;1919;-80
2022/11/26 01:40:49;;;;;;;46.00;21.87;;;;;;;7.24;72.16;102049.13;675406;29;1182;-81
2022/11/26 01:41:19;;;;;;;48.22;21.65;;;;;;;7.28;72.13;102058.91;677530;29;1397;-80
2022/11/26 01:42:05;;;;;;;46.28;20.95;;;;;;;7.26;71.64;102060.53;679554;29;1250;-80
2022/11/26 01:42:49;;;;;;;47.00;21.27;;;;;;;7.20;72.20;102054.94;683260;29;1212;-81
2022/11/26 01:43:25;;;;;;;51.05;22.15;;;;;;;7.26;71.73;102070.91;685559;28;1110;-81
2022/11/26 01:43:48;;;;;;;42.75;21.10;;;;;;;7.25;71.95;102062.22;685819;28;838;-80
2022/11/26 01:44:20;;;;;;;43.95;21.15;;;;;;;7.16;72.03;102058.13;682860;29;1074;-81
2022/11/26 01:44:41;;;;;;;45.38;21.45;;;;;;;7.16;71.87;102053.84;683244;29;752;-81
2022/11/26 01:45:13;;;;;;;44.95;21.42;;;;;;;7.18;71.97;102059.16;672440;29;1234;-81
2022/11/26 01:45:34;;;;;;;40.30;20.95;;;;;;;7.17;71.81;102052.16;672723;29;888;-81
2022/11/26 01:45:55;;;;;;;40.70;20.87;;;;;;;7.16;71.87;102060.72;675766;29;1128;-81
2022/11/26 01:46:18;;;;;;;41.83;20.55;;;;;;;7.16;71.70;102063.31;677540;29;1868;-81
2022/11/26 01:46:39;;;;;;;42.35;20.58;;;;;;;7.14;71.94;102055.47;677810;29;859;-81
2022/11/26 01:47:01;;;;;;;43.05;20.45;;;;;;;7.16;72.21;102058.13;682837;28;1318;-81
2022/11/26 01:47:28;;;;;;;41.97;20.45;;;;;;;7.10;72.40;102049.19;677870;29;1108;-81
2022/11/26 01:47:49;;;;;;;51.08;21.13;;;;;;;7.16;71.76;102060.72;680280;29;1315;-81
2022/11/26 01:48:24;;;;;;;49.63;21.00;;;;;;;7.22;72.19;102064.63;682892;29;1119;-81
2022/11/26 01:48:47;;;;;;;41.78;20.27;;;;;;;7.12;72.10;102038.88;680331;29;1127;-81
2022/11/26 01:49:32;;;;;;;38.95;20.05;;;;;;;7.19;72.27;102058.34;685437;28;1062;-81
2022/11/26 01:50:27;;;;;;;42.42;21.00;;;;;;;7.32;72.05;102071.31;683050;29;875;-81
2022/11/26 01:50:52;;;;;;;55.10;23.20;;;;;;;7.26;72.34;102058.81;680302;29;1332;-81
2022/11/26 01:51:26;;;;;;;45.42;22.40;;;;;;;7.30;72.42;102067.69;680169;29;1324;-82
2022/11/26 01:51:53;;;;;;;40.80;21.70;;;;;;;7.31;72.27;102069.47;681949;29;780;-81
2022/11/26 01:52:22;;;;;;;47.15;22.40;;;;;;;7.31;72.32;102061.69;685407;28;1041;-81
2022/11/26 01:52:43;;;;;;;51.78;22.83;;;;;;;7.33;72.43;102061.78;675121;29;920;-81
2022/11/26 01:53:11;;;;;;;47.53;22.70;;;;;;;7.31;72.25;102063.41;677485;29;1242;-81
2022/11/26 01:53:33;;;;;;;45.35;22.83;;;;;;;7.44;72.21;102080.66;680390;29;1123;-81